Time,TemperatureF,DewpointF,PressureIn,WindDirection,WindDirectionDegrees,WindSpeedMPH,WindSpeedGustMPH,Humidity,HourlyPrecipIn,Conditions,Clouds,dailyrainin,SoftwareType,DateUTC
2013-06-16 00:01:00,51.0,24.0,-100.00,ENE,73,2.0,4.0,35,0.00,,,-99.99,,2013-06-16 06:01:00,
2013-06-16 00:11:00,51.0,23.0,-100.00,ENE,72,3.0,8.0,33,0.00,,,-99.99,,2013-06-16 06:11:00,
2013-06-16 00:22:00,51.0,24.0,-100.00,ESE,110,7.0,9.0,34,-99.99,,,-99.99,,2013-06-16 06:22:00,
2013-06-16 00:33:00,50.0,24.0,-100.00,SE,127,4.0,7.0,36,0.00,,,-99.99,,2013-06-16 06:33:00,
2013-06-16 00:52:00,50.0,25.0,-100.00,SE,124,1.0,4.0,36,0.00,,,-99.99,,2013-06-16 06:52:00,
2013-06-16 01:11:00,50.0,25.0,-100.00,SSW,198,2.0,4.0,37,0.00,,,-99.99,,2013-06-16 07:11:00,
2013-06-16 01:22:00,50.0,25.0,-100.00,SW,215,1.0,3.0,37,0.00,,,-99.99,,2013-06-16 07:22:00,
2013-06-16 01:32:00,49.0,25.0,-100.00,SSW,208,1.0,3.0,38,0.00,,,-99.99,,2013-06-16 07:32:00,
2013-06-16 01:43:00,50.0,25.0,-100.00,SE,124,2.0,7.0,37,0.00,,,-99.99,,2013-06-16 07:43:00,
2013-06-16 01:53:00,51.0,24.0,-100.00,East,95,6.0,8.0,35,0.00,,,-99.99,,2013-06-16 07:53:00,
2013-06-16 02:02:00,49.0,24.0,-100.00,SE,134,2.0,6.0,38,0.00,,,-99.99,,2013-06-16 08:02:00,
2013-06-16 02:11:00,50.0,24.0,-100.00,SE,138,3.0,6.0,36,0.00,,,-99.99,,2013-06-16 08:11:00,
2013-06-16 02:22:00,50.0,23.0,-100.00,ESE,123,6.0,9.0,35,0.00,,,-99.99,,2013-06-16 08:22:00,
2013-06-16 02:33:00,51.0,23.0,-100.00,ESE,102,7.0,9.0,33,0.00,,,-99.99,,2013-06-16 08:33:00,
2013-06-16 02:43:00,51.0,23.0,-100.00,ESE,102,7.0,11.0,32,0.00,,,-99.99,,2013-06-16 08:43:00,
2013-06-16 02:54:00,52.0,22.0,-100.00,East,95,9.0,11.0,30,0.00,,,-99.99,,2013-06-16 08:54:00,
2013-06-16 03:01:00,53.0,22.0,-100.00,East,95,8.0,11.0,30,0.00,,,-99.99,,2013-06-16 09:01:00,
2013-06-16 03:11:00,53.0,21.0,-100.00,ESE,104,7.0,9.0,29,0.00,,,-99.99,,2013-06-16 09:11:00,
2013-06-16 03:22:00,52.0,21.0,-100.00,East,99,7.0,11.0,29,0.00,,,-99.99,,2013-06-16 09:22:00,
2013-06-16 03:33:00,53.0,20.0,-100.00,ESE,103,6.0,14.0,27,0.00,,,-99.99,,2013-06-16 09:33:00,
2013-06-16 03:42:00,53.0,20.0,-100.00,East,99,11.0,16.0,26,0.00,,,-99.99,,2013-06-16 09:42:00,
2013-06-16 03:52:00,55.0,19.0,-100.00,ESE,102,12.0,17.0,24,0.00,,,-99.99,,2013-06-16 09:52:00,
2013-06-16 04:01:00,55.0,19.0,-100.00,ESE,103,13.0,17.0,24,0.00,,,-99.99,,2013-06-16 10:01:00,
2013-06-16 04:12:00,54.0,20.0,-100.00,ESE,112,11.0,15.0,25,0.00,,,-99.99,,2013-06-16 10:12:00,
2013-06-16 04:42:00,54.0,19.0,-100.00,ESE,113,10.0,14.0,25,0.00,,,-99.99,,2013-06-16 10:42:00,
2013-06-16 04:53:00,52.0,19.0,-100.00,East,99,12.0,16.0,27,0.00,,,-99.99,,2013-06-16 10:53:00,
2013-06-16 05:02:00,52.0,19.0,-100.00,East,99,13.0,16.0,27,0.00,,,-99.99,,2013-06-16 11:02:00,
2013-06-16 05:11:00,54.0,19.0,-100.00,ESE,106,14.0,19.0,26,0.00,,,-99.99,,2013-06-16 11:11:00,
2013-06-16 05:22:00,53.0,19.0,-100.00,ESE,103,14.0,19.0,25,0.00,,,-99.99,,2013-06-16 11:22:00,
2013-06-16 05:33:00,53.0,19.0,-100.00,ESE,102,13.0,17.0,26,0.00,,,-99.99,,2013-06-16 11:33:00,
2013-06-16 05:43:00,53.0,18.0,-100.00,East,100,13.0,16.0,25,0.00,,,-99.99,,2013-06-16 11:43:00,
2013-06-16 05:52:00,53.0,18.0,-100.00,ESE,103,13.0,17.0,24,0.00,,,-99.99,,2013-06-16 11:52:00,
2013-06-16 06:02:00,53.0,18.0,-100.00,ESE,103,12.0,15.0,24,0.00,,,-99.99,,2013-06-16 12:02:00,
2013-06-16 06:11:00,51.0,19.0,-100.00,SE,130,6.0,12.0,27,0.00,,,-99.99,,2013-06-16 12:11:00,
2013-06-16 06:22:00,51.0,19.0,-100.00,SSE,148,3.0,7.0,28,0.00,,,-99.99,,2013-06-16 12:22:00,
2013-06-16 06:42:00,52.0,21.0,-100.00,SE,127,4.0,7.0,29,0.00,,,-99.99,,2013-06-16 12:42:00,
2013-06-16 06:53:00,53.0,23.0,-100.00,SSE,152,4.0,6.0,30,0.00,,,-99.99,,2013-06-16 12:53:00,
2013-06-16 07:01:00,55.0,22.0,-100.00,SSE,167,6.0,11.0,28,0.00,,,-99.99,,2013-06-16 13:01:00,
2013-06-16 07:11:00,58.0,22.0,-100.00,South,175,7.0,11.0,25,0.00,,,-99.99,,2013-06-16 13:11:00,
2013-06-16 07:22:00,60.0,23.0,-100.00,SSE,160,11.0,13.0,23,0.00,,,-99.99,,2013-06-16 13:22:00,
2013-06-16 07:34:00,61.0,21.0,-100.00,SSE,161,12.0,14.0,21,0.00,,,-99.99,,2013-06-16 13:34:00,
2013-06-16 07:53:00,62.0,22.0,-100.00,SSE,162,11.0,15.0,21,0.00,,,-99.99,,2013-06-16 13:53:00,
2013-06-16 08:12:00,64.0,22.0,-100.00,SSE,161,12.0,16.0,20,0.00,,,-99.99,,2013-06-16 14:12:00,
2013-06-16 08:22:00,64.0,21.0,-100.00,SSE,158,12.0,16.0,18,0.00,,,-99.99,,2013-06-16 14:22:00,
2013-06-16 08:34:00,65.0,20.0,-100.00,SSE,164,12.0,17.0,17,0.00,,,-99.99,,2013-06-16 14:34:00,
2013-06-16 08:43:00,65.0,21.0,-100.00,SSE,167,12.0,16.0,18,0.00,,,-99.99,,2013-06-16 14:43:00,
2013-06-16 08:52:00,66.0,20.0,-100.00,South,174,12.0,17.0,17,0.00,,,-99.99,,2013-06-16 14:52:00,
2013-06-16 09:02:00,66.0,21.0,-100.00,South,171,11.0,16.0,18,0.00,,,-99.99,,2013-06-16 15:02:00,
2013-06-16 09:12:00,67.0,21.0,-100.00,SSW,192,11.0,16.0,17,0.00,,,-99.99,,2013-06-16 15:12:00,
2013-06-16 09:22:00,67.0,18.0,-100.00,SSW,196,12.0,19.0,15,0.00,,,-99.99,,2013-06-16 15:22:00,
2013-06-16 09:33:00,68.0,20.0,-100.00,SSW,205,11.0,16.0,16,0.00,,,-99.99,,2013-06-16 15:33:00,
2013-06-16 09:52:00,68.0,21.0,-100.00,SSW,203,11.0,15.0,17,0.00,,,-99.99,,2013-06-16 15:52:00,
2013-06-16 10:01:00,68.0,17.0,-100.00,SSW,209,12.0,20.0,14,0.00,,,-99.99,,2013-06-16 16:01:00,
2013-06-16 10:12:00,68.0,18.0,-100.00,SSW,203,14.0,19.0,14,0.00,,,-99.99,,2013-06-16 16:12:00,
2013-06-16 10:22:00,69.0,20.0,-100.00,SSW,213,15.0,21.0,16,0.00,,,-99.99,,2013-06-16 16:22:00,
2013-06-16 10:33:00,69.0,19.0,-100.00,SW,215,15.0,21.0,15,0.00,,,-99.99,,2013-06-16 16:33:00,
2013-06-16 10:43:00,69.0,21.0,-100.00,SSW,213,15.0,21.0,16,0.00,,,-99.99,,2013-06-16 16:43:00,
2013-06-16 10:53:00,70.0,19.0,-100.00,SSW,212,13.0,17.0,14,0.00,,,-99.99,,2013-06-16 16:53:00,
2013-06-16 11:01:00,69.0,19.0,-100.00,SSW,203,13.0,20.0,15,0.00,,,-99.99,,2013-06-16 17:01:00,
2013-06-16 11:11:00,69.0,19.0,-100.00,SSW,202,14.0,21.0,15,0.00,,,-99.99,,2013-06-16 17:11:00,
2013-06-16 11:22:00,70.0,20.0,-100.00,SSW,199,14.0,21.0,15,0.00,,,-99.99,,2013-06-16 17:22:00,
2013-06-16 11:34:00,70.0,21.0,-100.00,SSW,192,15.0,23.0,16,0.00,,,-99.99,,2013-06-16 17:34:00,
2013-06-16 11:43:00,70.0,20.0,-100.00,South,184,16.0,29.0,14,0.00,,,-99.99,,2013-06-16 17:43:00,
2013-06-16 12:02:00,71.0,19.0,-100.00,South,176,18.0,26.0,14,0.00,,,-99.99,,2013-06-16 18:02:00,
2013-06-16 12:12:00,72.0,21.0,-100.00,South,182,15.0,23.0,15,0.00,,,-99.99,,2013-06-16 18:12:00,
2013-06-16 12:22:00,71.0,21.0,-100.00,South,178,17.0,26.0,15,0.00,,,-99.99,,2013-06-16 18:22:00,
2013-06-16 12:33:00,72.0,24.0,-100.00,SSE,168,17.0,23.0,16,0.00,,,-99.99,,2013-06-16 18:33:00,
2013-06-16 12:43:00,72.0,21.0,-100.00,SSE,162,19.0,30.0,14,0.00,,,-99.99,,2013-06-16 18:43:00,
2013-06-16 12:52:00,72.0,22.0,-100.00,South,171,19.0,26.0,15,0.00,,,-99.99,,2013-06-16 18:52:00,
2013-06-16 13:01:00,73.0,24.0,-100.00,SSE,168,20.0,28.0,16,0.00,,,-99.99,,2013-06-16 19:01:00,
2013-06-16 13:11:00,72.0,24.0,-100.00,South,175,17.0,26.0,16,0.00,,,-99.99,,2013-06-16 19:11:00,
2013-06-16 13:22:00,72.0,23.0,-100.00,SSE,164,16.0,27.0,16,0.00,,,-99.99,,2013-06-16 19:22:00,
2013-06-16 13:33:00,73.0,24.0,-100.00,SSE,162,15.0,26.0,16,0.00,,,-99.99,,2013-06-16 19:33:00,
2013-06-16 13:43:00,71.0,23.0,-100.00,South,179,17.0,26.0,16,0.00,,,-99.99,,2013-06-16 19:43:00,
2013-06-16 13:53:00,71.0,22.0,-100.00,SSE,167,15.0,23.0,16,0.00,,,-99.99,,2013-06-16 19:53:00,
2013-06-16 14:02:00,71.0,23.0,-100.00,South,174,14.0,21.0,16,0.00,,,-99.99,,2013-06-16 20:02:00,
2013-06-16 14:11:00,72.0,22.0,-100.00,South,172,12.0,22.0,15,0.00,,,-99.99,,2013-06-16 20:11:00,
2013-06-16 14:22:00,72.0,22.0,-100.00,South,176,12.0,17.0,15,0.00,,,-99.99,,2013-06-16 20:22:00,
2013-06-16 14:33:00,72.0,22.0,-100.00,South,174,12.0,17.0,15,0.00,,,-99.99,,2013-06-16 20:33:00,
2013-06-16 14:42:00,73.0,22.0,-100.00,South,174,14.0,19.0,15,0.00,,,-99.99,,2013-06-16 20:42:00,
2013-06-16 14:53:00,73.0,22.0,-100.00,SSW,192,7.0,17.0,14,0.00,,,-99.99,,2013-06-16 20:53:00,
2013-06-16 15:01:00,75.0,23.0,-100.00,SW,234,6.0,13.0,14,0.00,,,-99.99,,2013-06-16 21:01:00,
2013-06-16 15:11:00,72.0,23.0,-100.00,SSE,167,9.0,16.0,15,0.00,,,-99.99,,2013-06-16 21:11:00,
2013-06-16 15:22:00,73.0,23.0,-100.00,South,191,8.0,12.0,16,0.00,,,-99.99,,2013-06-16 21:22:00,
2013-06-16 15:32:00,72.0,23.0,-100.00,SW,215,9.0,13.0,15,0.00,,,-99.99,,2013-06-16 21:32:00,
2013-06-16 15:42:00,72.0,26.0,-100.00,SW,234,6.0,9.0,18,0.00,,,-99.99,,2013-06-16 21:42:00,
2013-06-16 15:53:00,71.0,22.0,-100.00,SW,233,4.0,7.0,16,0.00,,,-99.99,,2013-06-16 21:53:00,
2013-06-16 16:01:00,71.0,23.0,-100.00,SSW,198,6.0,9.0,16,0.00,,,-99.99,,2013-06-16 22:01:00,
2013-06-16 16:12:00,68.0,26.0,-100.00,South,175,14.0,36.0,20,0.00,,,-99.99,,2013-06-16 22:12:00,
2013-06-16 16:32:00,68.0,25.0,-100.00,SSE,157,9.0,20.0,20,0.00,,,-99.99,,2013-06-16 22:32:00,
2013-06-16 17:11:00,63.0,32.0,-100.00,SSE,167,18.0,24.0,30,0.00,,,-99.99,,2013-06-16 23:11:00,
2013-06-16 17:22:00,63.0,33.0,-100.00,SSE,158,13.0,19.0,32,0.00,,,-99.99,,2013-06-16 23:22:00,
2013-06-16 17:32:00,65.0,29.0,-100.00,ESE,113,9.0,14.0,26,0.00,,,-99.99,,2013-06-16 23:32:00,
2013-06-16 17:42:00,66.0,31.0,-100.00,East,93,9.0,14.0,28,0.00,,,-99.99,,2013-06-16 23:42:00,
2013-06-16 17:51:00,67.0,32.0,-100.00,SE,134,12.0,20.0,26,0.00,,,-99.99,,2013-06-16 23:51:00,
2013-06-16 18:02:00,68.0,31.0,-100.00,ESE,120,13.0,21.0,25,0.00,,,-99.99,,2013-06-17 00:02:00,
2013-06-16 18:11:00,68.0,31.0,-100.00,ESE,121,13.0,17.0,25,0.00,,,-99.99,,2013-06-17 00:11:00,
2013-06-16 18:22:00,68.0,31.0,-100.00,ESE,121,12.0,17.0,25,0.00,,,-99.99,,2013-06-17 00:22:00,
2013-06-16 18:32:00,68.0,30.0,-100.00,SE,126,10.0,17.0,24,0.00,,,-99.99,,2013-06-17 00:32:00,
2013-06-16 18:42:00,67.0,30.0,-100.00,ESE,123,11.0,16.0,25,0.00,,,-99.99,,2013-06-17 00:42:00,
2013-06-16 18:52:00,68.0,30.0,-100.00,SE,127,8.0,12.0,24,0.00,,,-99.99,,2013-06-17 00:52:00,
2013-06-16 19:02:00,67.0,32.0,-100.00,SE,143,9.0,14.0,27,0.00,,,-99.99,,2013-06-17 01:02:00,
2013-06-16 19:11:00,65.0,32.0,-100.00,East,100,12.0,18.0,29,0.00,,,-99.99,,2013-06-17 01:11:00,
2013-06-16 19:22:00,65.0,31.0,-100.00,East,93,13.0,18.0,29,0.00,,,-99.99,,2013-06-17 01:22:00,
2013-06-16 19:32:00,65.0,31.0,-100.00,SE,133,10.0,15.0,28,0.00,,,-99.99,,2013-06-17 01:32:00,
2013-06-16 19:43:00,64.0,31.0,-100.00,SE,137,11.0,15.0,29,0.00,,,-99.99,,2013-06-17 01:43:00,
2013-06-16 19:53:00,64.0,30.0,-100.00,SSE,150,12.0,17.0,28,0.00,,,-99.99,,2013-06-17 01:53:00,
2013-06-16 20:02:00,64.0,31.0,-100.00,SSE,151,12.0,17.0,29,0.00,,,-99.99,,2013-06-17 02:02:00,
2013-06-16 20:12:00,63.0,31.0,-100.00,SSE,147,14.0,21.0,30,0.00,,,-99.99,,2013-06-17 02:12:00,
2013-06-16 20:22:00,62.0,32.0,-100.00,SE,134,17.0,24.0,32,0.00,,,-99.99,,2013-06-17 02:22:00,
2013-06-16 20:34:00,62.0,33.0,-100.00,SE,127,16.0,22.0,33,0.00,,,-99.99,,2013-06-17 02:34:00,
2013-06-16 20:43:00,62.0,33.0,-100.00,SE,130,15.0,22.0,34,0.00,,,-99.99,,2013-06-17 02:43:00,
2013-06-16 20:53:00,60.0,33.0,-100.00,ESE,116,12.0,19.0,36,0.00,,,-99.99,,2013-06-17 02:53:00,
2013-06-16 21:02:00,60.0,33.0,-100.00,ESE,112,12.0,17.0,36,0.00,,,-99.99,,2013-06-17 03:02:00,
2013-06-16 21:12:00,59.0,33.0,-100.00,ESE,110,11.0,16.0,37,0.00,,,-99.99,,2013-06-17 03:12:00,
2013-06-16 21:22:00,58.0,33.0,-100.00,ESE,104,13.0,16.0,38,0.00,,,-99.99,,2013-06-17 03:22:00,
2013-06-16 21:33:00,58.0,33.0,-100.00,ESE,106,12.0,17.0,39,0.00,,,-99.99,,2013-06-17 03:33:00,
2013-06-16 21:44:00,58.0,33.0,-100.00,ESE,112,13.0,18.0,38,0.00,,,-99.99,,2013-06-17 03:44:00,
2013-06-16 21:53:00,58.0,33.0,-100.00,ESE,112,14.0,19.0,38,0.00,,,-99.99,,2013-06-17 03:53:00,
2013-06-16 22:02:00,58.0,32.0,-100.00,ESE,117,12.0,18.0,38,0.00,,,-99.99,,2013-06-17 04:02:00,
2013-06-16 22:12:00,58.0,31.0,-100.00,ESE,116,11.0,18.0,36,0.00,,,-99.99,,2013-06-17 04:12:00,
2013-06-16 22:22:00,57.0,31.0,-100.00,ESE,114,11.0,16.0,37,0.00,,,-99.99,,2013-06-17 04:22:00,
2013-06-16 22:34:00,58.0,31.0,-100.00,ESE,113,12.0,20.0,35,0.00,,,-99.99,,2013-06-17 04:34:00,
2013-06-16 22:42:00,58.0,31.0,-100.00,ESE,109,12.0,18.0,36,0.00,,,-99.99,,2013-06-17 04:42:00,
2013-06-16 22:53:00,58.0,30.0,-100.00,ESE,109,13.0,17.0,35,0.00,,,-99.99,,2013-06-17 04:53:00,
2013-06-16 23:02:00,57.0,30.0,-100.00,East,99,12.0,17.0,36,0.00,,,-99.99,,2013-06-17 05:02:00,
2013-06-16 23:11:00,57.0,30.0,-100.00,ESE,102,12.0,18.0,36,0.00,,,-99.99,,2013-06-17 05:11:00,
2013-06-16 23:22:00,55.0,30.0,-100.00,East,96,7.0,12.0,38,0.00,,,-99.99,,2013-06-17 05:22:00,
2013-06-16 23:33:00,54.0,29.0,-100.00,East,95,6.0,9.0,38,0.00,,,-99.99,,2013-06-17 05:33:00,
2013-06-16 23:44:00,55.0,29.0,-100.00,East,95,6.0,9.0,37,0.00,,,-99.99,,2013-06-17 05:44:00,
2013-06-16 23:53:00,56.0,28.0,-100.00,ESE,123,4.0,9.0,33,0.00,,,-99.99,,2013-06-17 05:53:00,